createdAt,value
2023-07-25T00:01:48.939Z,19
2023-07-25T00:04:20.210Z,20
2023-07-25T00:06:50.896Z,20
2023-07-25T00:09:21.654Z,20
2023-07-25T00:11:53.518Z,20
2023-07-25T00:14:24.689Z,24
2023-07-25T00:16:55.753Z,20
2023-07-25T00:19:27.246Z,20
2023-07-25T00:21:57.945Z,22
2023-07-25T00:24:29.445Z,24
2023-07-25T00:27:00.424Z,17
2023-07-25T00:29:31.072Z,24
2023-07-25T00:32:03.666Z,22
2023-07-25T00:34:34.773Z,20
2023-07-25T00:37:06.216Z,19
2023-07-25T00:39:38.265Z,20
2023-07-25T00:42:08.980Z,17
2023-07-25T00:44:40.296Z,16
2023-07-25T00:47:11.440Z,20
2023-07-25T00:49:42.991Z,20
2023-07-25T00:52:14.632Z,20
2023-07-25T00:54:45.599Z,14
2023-07-25T00:57:16.576Z,20
2023-07-25T00:59:48.000Z,16
2023-07-25T01:02:18.744Z,16
2023-07-25T01:04:50.107Z,20
2023-07-25T01:07:21.455Z,21
2023-07-25T01:09:52.292Z,17
2023-07-25T01:12:23.422Z,20
2023-07-25T01:14:54.637Z,16
2023-07-25T01:17:25.444Z,12
2023-07-25T01:19:56.105Z,15
2023-07-25T01:22:27.062Z,20
2023-07-25T01:24:58.104Z,16
2023-07-25T01:27:29.147Z,17
2023-07-25T01:30:01.064Z,16
2023-07-25T01:32:31.820Z,16
2023-07-25T01:35:02.746Z,12
2023-07-25T01:37:32.220Z,15
2023-07-25T01:40:03.238Z,21
2023-07-25T01:42:34.408Z,16
2023-07-25T01:45:05.590Z,18
2023-07-25T01:47:36.744Z,19
2023-07-25T01:50:07.647Z,22
2023-07-25T01:52:38.519Z,19
2023-07-25T01:55:09.588Z,20
2023-07-25T01:57:41.142Z,20
2023-07-25T02:00:12.197Z,16
2023-07-25T02:02:43.265Z,16
2023-07-25T02:05:14.585Z,16
2023-07-25T02:07:46.961Z,24
2023-07-25T02:10:17.908Z,16
2023-07-25T02:12:48.767Z,20
2023-07-25T02:15:18.180Z,21
2023-07-25T02:17:49.863Z,19
2023-07-25T02:20:21.659Z,16
2023-07-25T02:22:53.005Z,16
2023-07-25T02:25:24.263Z,20
2023-07-25T02:27:55.606Z,20
2023-07-25T02:30:26.408Z,20
2023-07-25T02:32:57.402Z,19
2023-07-25T02:35:28.239Z,20
2023-07-25T02:37:58.967Z,16
2023-07-25T02:40:29.574Z,16
2023-07-25T02:43:00.570Z,19
2023-07-25T02:45:31.484Z,19
2023-07-25T02:48:02.482Z,18
2023-07-25T02:50:33.513Z,20
2023-07-25T02:53:04.417Z,20
2023-07-25T02:55:35.186Z,20
2023-07-25T02:58:05.589Z,15
2023-07-25T03:00:35.434Z,24
2023-07-25T03:03:06.213Z,16
2023-07-25T03:05:37.510Z,23
2023-07-25T03:08:08.525Z,21
2023-07-25T03:10:39.436Z,23
2023-07-25T03:13:10.375Z,20
2023-07-25T03:15:41.779Z,20
2023-07-25T03:18:13.697Z,20
2023-07-25T03:20:44.623Z,22
2023-07-25T03:23:16.144Z,21
2023-07-25T03:25:47.563Z,24
2023-07-25T03:28:18.247Z,22
2023-07-25T03:30:49.324Z,20
2023-07-25T03:33:20.529Z,20
2023-07-25T03:35:51.798Z,21
2023-07-25T03:38:22.420Z,20
2023-07-25T03:40:53.023Z,20
2023-07-25T03:43:24.492Z,17
2023-07-25T03:45:55.490Z,18
2023-07-25T03:48:26.532Z,16
2023-07-25T03:50:57.395Z,21
2023-07-25T03:53:28.253Z,21
2023-07-25T03:55:58.979Z,24
2023-07-25T03:58:30.066Z,20
2023-07-25T04:00:59.964Z,24
2023-07-25T04:03:31.093Z,28
2023-07-25T04:06:01.829Z,20
2023-07-25T04:08:32.991Z,24
2023-07-25T04:11:03.732Z,20
2023-07-25T04:13:34.553Z,24
2023-07-25T04:16:05.034Z,20
2023-07-25T04:18:36.147Z,26
2023-07-25T04:21:07.743Z,21
2023-07-25T04:23:38.346Z,25
2023-07-25T04:26:09.802Z,20
2023-07-25T04:28:40.711Z,25
2023-07-25T04:31:11.948Z,24
2023-07-25T04:33:43.034Z,28
2023-07-25T04:36:14.017Z,32
2023-07-25T04:38:45.224Z,44
2023-07-25T04:41:15.925Z,27
2023-07-25T04:43:47.251Z,27
2023-07-25T04:46:17.941Z,28
2023-07-25T04:48:49.209Z,33
2023-07-25T04:51:20.251Z,33
2023-07-25T04:53:51.086Z,30
2023-07-25T04:56:22.245Z,44
2023-07-25T04:58:53.061Z,28
2023-07-25T05:01:23.907Z,32
2023-07-25T05:03:55.415Z,39
2023-07-25T05:06:26.073Z,32
2023-07-25T05:08:57.830Z,36
2023-07-25T05:11:28.882Z,21
2023-07-25T05:14:00.593Z,40
2023-07-25T05:16:31.565Z,32
2023-07-25T05:19:03.314Z,28
2023-07-25T05:21:35.314Z,28
2023-07-25T05:24:06.144Z,40
2023-07-25T05:26:36.969Z,34
2023-07-25T05:29:08.066Z,28
2023-07-25T05:31:38.574Z,33
2023-07-25T05:34:10.040Z,34
2023-07-25T05:36:40.740Z,32
2023-07-25T05:39:12.549Z,35
2023-07-25T05:41:43.945Z,32
2023-07-25T05:44:15.524Z,35
2023-07-25T05:46:46.107Z,28
2023-07-25T05:49:17.400Z,31
2023-07-25T05:51:48.359Z,35
2023-07-25T05:54:19.564Z,34
2023-07-25T05:56:55.261Z,37
2023-07-25T05:59:24.622Z,34
2023-07-25T06:01:55.742Z,34
2023-07-25T06:04:26.487Z,34
2023-07-25T06:06:57.057Z,36
2023-07-25T06:09:28.731Z,36
2023-07-25T06:11:59.143Z,32
2023-07-25T06:14:30.144Z,32
2023-07-25T06:17:01.505Z,32
2023-07-25T06:19:32.905Z,33
2023-07-25T06:22:03.867Z,34
2023-07-25T06:24:34.935Z,37
2023-07-25T06:27:05.769Z,35
2023-07-25T06:29:36.776Z,32
2023-07-25T06:32:08.443Z,32
2023-07-25T06:34:39.277Z,37
2023-07-25T06:37:10.459Z,33
2023-07-25T06:39:41.326Z,37
2023-07-25T06:42:12.070Z,33
2023-07-25T06:44:42.400Z,32
2023-07-25T06:47:13.508Z,32
2023-07-25T06:49:45.057Z,32
2023-07-25T06:52:16.624Z,32
2023-07-25T06:54:46.973Z,28
2023-07-25T06:57:17.536Z,32
2023-07-25T06:59:48.523Z,29
2023-07-25T07:02:19.722Z,29
2023-07-25T07:04:50.600Z,28
2023-07-25T07:07:21.159Z,31
2023-07-25T07:09:52.701Z,30
2023-07-25T07:12:23.423Z,30
2023-07-25T07:14:54.190Z,32
2023-07-25T07:17:25.569Z,24
2023-07-25T07:19:56.134Z,28
2023-07-25T07:22:26.541Z,24
2023-07-25T07:24:58.262Z,24
2023-07-25T07:27:28.744Z,27
2023-07-25T07:29:59.836Z,27
2023-07-25T07:32:30.530Z,24
2023-07-25T07:35:01.333Z,24
2023-07-25T07:37:34.130Z,29
2023-07-25T07:40:03.528Z,24
2023-07-25T07:42:34.266Z,28
2023-07-25T07:45:06.457Z,24
2023-07-25T07:47:37.565Z,28
2023-07-25T07:50:08.374Z,25
2023-07-25T07:52:42.914Z,24
2023-07-25T07:55:10.549Z,24
2023-07-25T07:57:42.030Z,25
2023-07-25T08:00:13.057Z,21
2023-07-25T08:02:44.782Z,24
2023-07-25T08:05:15.638Z,20
2023-07-25T08:07:46.694Z,22
2023-07-25T08:10:17.929Z,20
2023-07-25T08:12:49.110Z,24
2023-07-25T08:15:19.766Z,23
2023-07-25T08:17:50.018Z,28
2023-07-25T08:20:20.916Z,27
2023-07-25T08:22:51.525Z,20
2023-07-25T08:25:22.576Z,24
2023-07-25T08:27:55.616Z,24
2023-07-25T08:30:24.939Z,27
2023-07-25T08:32:55.666Z,28
2023-07-25T08:35:26.324Z,32
2023-07-25T08:37:57.482Z,25
2023-07-25T08:40:28.342Z,24
2023-07-25T08:43:01.347Z,24
2023-07-25T08:45:32.557Z,20
2023-07-25T08:48:03.343Z,20
2023-07-25T08:50:32.544Z,24
2023-07-25T08:53:03.945Z,20
2023-07-25T08:55:35.449Z,24
2023-07-25T08:58:06.503Z,20
2023-07-25T09:00:37.220Z,20
2023-07-25T09:03:08.089Z,16
2023-07-25T09:05:38.744Z,24
2023-07-25T09:08:09.446Z,20
2023-07-25T09:10:40.325Z,21
2023-07-25T09:13:11.128Z,16
2023-07-25T09:15:42.194Z,19
2023-07-25T09:18:12.851Z,20
2023-07-25T09:20:43.854Z,16
2023-07-25T09:23:14.660Z,18
2023-07-25T09:25:48.652Z,16
2023-07-25T09:28:19.435Z,16
2023-07-25T09:30:50.512Z,24
2023-07-25T09:33:21.154Z,19
2023-07-25T09:35:54.051Z,16
2023-07-25T09:38:24.851Z,16
2023-07-25T09:40:55.394Z,16
2023-07-25T09:43:26.250Z,16
2023-07-25T09:45:56.921Z,18
2023-07-25T09:48:27.383Z,19
2023-07-25T09:50:57.759Z,12
2023-07-25T09:53:29.553Z,16
2023-07-25T09:56:00.879Z,16
2023-07-25T09:58:31.626Z,17
2023-07-25T10:01:02.231Z,20
2023-07-25T10:03:32.752Z,16
2023-07-25T10:06:03.601Z,14
2023-07-25T10:08:34.048Z,17
2023-07-25T10:11:04.734Z,22
2023-07-25T10:13:35.761Z,16
2023-07-25T10:16:06.648Z,28
2023-07-25T10:18:37.229Z,20
2023-07-25T10:21:06.315Z,25
2023-07-25T10:23:37.422Z,14
2023-07-25T10:26:10.248Z,15
2023-07-25T10:28:39.915Z,12
2023-07-25T10:31:10.780Z,17
2023-07-25T10:33:41.690Z,34
2023-07-25T10:36:12.206Z,21
2023-07-25T10:38:42.822Z,21
2023-07-25T10:41:20.610Z,16
2023-07-25T10:43:51.483Z,16
2023-07-25T10:46:21.952Z,20
2023-07-25T10:48:53.005Z,25
2023-07-25T10:51:24.062Z,20
2023-07-25T10:53:55.101Z,20
2023-07-25T10:56:25.861Z,15
2023-07-25T10:58:57.192Z,16
2023-07-25T11:01:28.291Z,16
2023-07-25T11:03:59.095Z,25
2023-07-25T11:06:31.121Z,23
2023-07-25T11:09:01.831Z,28
2023-07-25T11:11:32.806Z,24
2023-07-25T11:14:03.088Z,16
2023-07-25T11:16:32.251Z,13
2023-07-25T11:19:03.683Z,16
2023-07-25T11:21:35.147Z,16
2023-07-25T11:24:05.932Z,12
2023-07-25T11:26:37.272Z,14
2023-07-25T11:29:09.417Z,14
2023-07-25T11:31:41.209Z,12
2023-07-25T11:34:11.895Z,18
2023-07-25T11:36:42.478Z,16
2023-07-25T11:39:13.185Z,12
2023-07-25T11:41:44.758Z,12
2023-07-25T11:44:15.655Z,15
2023-07-25T11:46:46.157Z,16
2023-07-25T11:49:18.620Z,12
2023-07-25T11:51:47.437Z,13
2023-07-25T11:54:18.528Z,9
2023-07-25T11:56:49.515Z,12
2023-07-25T11:59:20.369Z,15
2023-07-25T12:01:50.944Z,16
2023-07-25T12:04:21.583Z,12
2023-07-25T12:06:52.641Z,12
2023-07-25T12:09:23.809Z,12
2023-07-25T12:11:54.590Z,12
2023-07-25T12:14:25.541Z,12
2023-07-25T12:16:55.967Z,12
2023-07-25T12:19:25.093Z,15
2023-07-25T12:21:55.712Z,12
2023-07-25T12:24:27.356Z,13
2023-07-25T12:26:57.799Z,16
2023-07-25T12:29:28.618Z,12
2023-07-25T12:31:59.114Z,16
2023-07-25T12:34:29.351Z,15
2023-07-25T12:37:00.236Z,16
2023-07-25T12:39:30.920Z,15
2023-07-25T12:42:02.331Z,16
2023-07-25T12:44:32.879Z,19
2023-07-25T12:47:03.783Z,15
2023-07-25T12:49:34.906Z,12
2023-07-25T12:52:05.482Z,14
2023-07-25T12:54:35.883Z,12
2023-07-25T12:57:08.612Z,16
2023-07-25T12:59:40.154Z,12
2023-07-25T13:02:10.685Z,9
2023-07-25T13:04:41.533Z,13
2023-07-25T13:07:11.986Z,15
2023-07-25T13:09:42.662Z,11
2023-07-25T13:12:13.416Z,12
2023-07-25T13:14:44.313Z,12
2023-07-25T13:17:14.755Z,12
2023-07-25T13:19:45.788Z,8
2023-07-25T13:22:16.315Z,9
2023-07-25T13:24:46.749Z,8
2023-07-25T13:27:17.484Z,15
2023-07-25T13:29:48.018Z,13
2023-07-25T13:32:19.522Z,8
2023-07-25T13:34:50.032Z,8
2023-07-25T13:37:20.611Z,9
2023-07-25T13:39:51.061Z,12
2023-07-25T13:42:21.691Z,9
2023-07-25T13:44:52.375Z,7
2023-07-25T13:47:22.592Z,8
2023-07-25T13:49:53.053Z,8
2023-07-25T13:52:25.269Z,8
2023-07-25T13:54:55.785Z,7
2023-07-25T13:57:32.111Z,8
2023-07-25T13:59:57.394Z,8
2023-07-25T14:02:28.066Z,7
2023-07-25T14:04:58.930Z,8
2023-07-25T14:07:29.626Z,4
2023-07-25T14:10:00.162Z,8
2023-07-25T14:12:30.656Z,11
2023-07-25T14:15:01.183Z,8
2023-07-25T14:17:30.196Z,12
2023-07-25T14:20:00.752Z,8
2023-07-25T14:22:31.745Z,12
2023-07-25T14:25:02.896Z,8
2023-07-25T14:27:33.546Z,4
2023-07-25T14:30:03.776Z,8
2023-07-25T14:32:34.441Z,8
2023-07-25T14:35:05.002Z,8
2023-07-25T14:37:48.551Z,8
2023-07-25T14:40:05.846Z,7
2023-07-25T14:42:36.538Z,4
2023-07-25T14:45:07.610Z,7
2023-07-25T14:47:38.237Z,9
2023-07-25T14:50:10.508Z,8
2023-07-25T14:52:41.119Z,7
2023-07-25T14:55:11.733Z,8
2023-07-25T14:57:43.188Z,6
2023-07-25T15:00:13.533Z,8
2023-07-25T15:02:44.326Z,4
2023-07-25T15:05:15.196Z,8
2023-07-25T15:07:45.792Z,11
2023-07-25T15:10:16.303Z,9
2023-07-25T15:12:47.323Z,8
2023-07-25T15:15:17.807Z,8
2023-07-25T15:17:49.959Z,8
2023-07-25T15:20:20.684Z,8
2023-07-25T15:22:52.022Z,9
2023-07-25T15:25:22.361Z,5
2023-07-25T15:27:53.208Z,5
2023-07-25T15:30:24.409Z,4
2023-07-25T15:32:55.026Z,8
2023-07-25T15:35:25.535Z,8
2023-07-25T15:37:56.087Z,8
2023-07-25T15:40:27.090Z,9
2023-07-25T15:42:57.719Z,8
2023-07-25T15:45:28.143Z,12
2023-07-25T15:47:59.156Z,12
2023-07-25T15:50:29.725Z,8
2023-07-25T15:53:00.411Z,11
2023-07-25T15:55:30.817Z,8
2023-07-25T15:58:01.521Z,10
2023-07-25T16:00:32.773Z,8
2023-07-25T16:03:03.683Z,8
2023-07-25T16:05:34.172Z,11
2023-07-25T16:08:05.326Z,4
2023-07-25T16:10:36.247Z,9
2023-07-25T16:13:07.020Z,8
2023-07-25T16:15:37.920Z,8
2023-07-25T16:18:08.465Z,9
2023-07-25T16:20:39.254Z,8
2023-07-25T16:23:09.855Z,8
2023-07-25T16:25:40.355Z,8
2023-07-25T16:28:10.747Z,8
2023-07-25T16:30:41.353Z,4
2023-07-25T16:33:12.332Z,8
2023-07-25T16:35:42.684Z,9
2023-07-25T16:38:13.435Z,4
2023-07-25T16:40:43.989Z,4
2023-07-25T16:43:14.458Z,7
2023-07-25T16:45:44.842Z,4
2023-07-25T16:48:15.437Z,8
2023-07-25T16:50:46.292Z,4
2023-07-25T16:53:18.011Z,7
2023-07-25T16:55:48.531Z,4
2023-07-25T16:58:19.129Z,4
2023-07-25T17:00:49.721Z,5
2023-07-25T17:03:20.049Z,8
2023-07-25T17:05:50.770Z,7
2023-07-25T17:08:21.243Z,8
2023-07-25T17:10:51.620Z,8
2023-07-25T17:13:22.124Z,4
2023-07-25T17:15:52.684Z,8
2023-07-25T17:18:23.204Z,8
2023-07-25T17:20:53.692Z,7
2023-07-25T17:23:23.986Z,8
2023-07-25T17:25:55.008Z,4
2023-07-25T17:28:25.676Z,4
2023-07-25T17:30:56.326Z,4
2023-07-25T17:33:26.682Z,12
2023-07-25T17:35:57.066Z,11
2023-07-25T17:38:27.828Z,8
2023-07-25T17:40:58.303Z,8
2023-07-25T17:43:28.957Z,12
2023-07-25T17:45:59.451Z,15
2023-07-25T17:48:29.815Z,4
2023-07-25T17:51:00.408Z,9
2023-07-25T17:53:30.768Z,8
2023-07-25T17:56:01.176Z,8
2023-07-25T17:58:31.633Z,20
2023-07-25T18:01:02.324Z,19
2023-07-25T18:03:33.138Z,8
2023-07-25T18:06:03.655Z,8
2023-07-25T18:08:34.894Z,12
2023-07-25T18:11:03.269Z,8
2023-07-25T18:13:33.892Z,21
2023-07-25T18:16:04.547Z,12
2023-07-25T18:18:35.176Z,19
2023-07-25T18:21:07.869Z,8
2023-07-25T18:23:36.929Z,7
2023-07-25T18:26:07.409Z,8
2023-07-25T18:28:37.801Z,8
2023-07-25T18:31:08.621Z,4
2023-07-25T18:33:38.836Z,8
2023-07-25T18:36:10.470Z,10
2023-07-25T18:38:43.373Z,7
2023-07-25T18:41:13.900Z,8
2023-07-25T18:43:43.788Z,5
2023-07-25T18:46:14.941Z,8
2023-07-25T18:48:45.808Z,8
2023-07-25T18:51:16.814Z,6
2023-07-25T18:53:47.619Z,4
2023-07-25T18:56:19.201Z,7
2023-07-25T18:58:49.636Z,8
2023-07-25T19:01:21.323Z,8
2023-07-25T19:03:52.013Z,8
2023-07-25T19:06:22.440Z,8
2023-07-25T19:08:53.135Z,4
2023-07-25T19:11:23.652Z,8
2023-07-25T19:13:54.698Z,9
2023-07-25T19:16:25.280Z,14
2023-07-25T19:18:55.865Z,26
2023-07-25T19:21:26.643Z,12
2023-07-25T19:23:56.983Z,8
2023-07-25T19:26:27.441Z,8
2023-07-25T19:29:00.422Z,4
2023-07-25T19:31:29.244Z,8
2023-07-25T19:33:59.895Z,5
2023-07-25T19:36:30.541Z,9
2023-07-25T19:39:01.104Z,7
2023-07-25T19:41:31.712Z,5
2023-07-25T19:44:01.888Z,4
2023-07-25T19:46:32.620Z,8
2023-07-25T19:49:02.998Z,4
2023-07-25T19:51:33.563Z,7
2023-07-25T19:54:05.234Z,8
2023-07-25T19:56:36.041Z,7
2023-07-25T19:59:07.412Z,8
2023-07-25T20:01:40.179Z,4
2023-07-25T20:04:10.552Z,8
2023-07-25T20:06:41.066Z,7
2023-07-25T20:09:11.914Z,4
2023-07-25T20:11:42.224Z,8
2023-07-25T20:14:12.789Z,8
2023-07-25T20:16:43.058Z,4
2023-07-25T20:19:14.617Z,8
2023-07-25T20:21:45.230Z,8
2023-07-25T20:24:15.898Z,8
2023-07-25T20:26:45.932Z,4
2023-07-25T20:29:16.517Z,8
2023-07-25T20:31:47.228Z,6
2023-07-25T20:34:17.639Z,12
2023-07-25T20:36:48.031Z,8
2023-07-25T20:39:18.507Z,8
2023-07-25T20:41:49.193Z,8
2023-07-25T20:44:19.581Z,8
2023-07-25T20:46:50.214Z,5
2023-07-25T20:49:22.843Z,6
2023-07-25T20:51:53.417Z,8
2023-07-25T20:54:24.232Z,8
2023-07-25T20:56:54.787Z,6
2023-07-25T20:59:25.723Z,9
2023-07-25T21:01:56.276Z,8
2023-07-25T21:04:28.862Z,5
2023-07-25T21:06:57.853Z,5
2023-07-25T21:09:28.692Z,8
2023-07-25T21:11:59.116Z,8
2023-07-25T21:14:29.623Z,5
2023-07-25T21:17:00.347Z,4
2023-07-25T21:19:31.067Z,8
2023-07-25T21:22:01.461Z,7
2023-07-25T21:24:34.991Z,8
2023-07-25T21:27:05.893Z,8
2023-07-25T21:29:36.698Z,8
2023-07-25T21:32:07.813Z,12
2023-07-25T21:34:38.978Z,10
2023-07-25T21:37:09.512Z,8
2023-07-25T21:39:40.352Z,12
2023-07-25T21:42:11.558Z,9
2023-07-25T21:44:42.167Z,8
2023-07-25T21:47:12.418Z,6
2023-07-25T21:49:44.176Z,8
2023-07-25T21:52:16.326Z,6
2023-07-25T21:54:47.072Z,8
2023-07-25T21:57:17.515Z,8
2023-07-25T21:59:48.103Z,4
2023-07-25T22:05:22.166Z,8
2023-07-25T22:07:52.446Z,6
2023-07-25T22:10:24.906Z,6
2023-07-25T22:12:55.913Z,8
2023-07-25T22:15:27.338Z,8
2023-07-25T22:17:58.360Z,8
2023-07-25T22:20:35.133Z,8
2023-07-25T22:23:01.607Z,8
2023-07-25T22:25:32.568Z,6
2023-07-25T22:28:03.068Z,8
2023-07-25T22:30:35.054Z,8
2023-07-25T22:33:05.644Z,8
2023-07-25T22:35:39.154Z,6
2023-07-25T22:38:09.573Z,8
2023-07-25T22:40:41.377Z,8
2023-07-25T22:43:12.118Z,6
2023-07-25T22:45:43.098Z,8
2023-07-25T22:48:15.625Z,8
2023-07-25T22:50:46.746Z,4
2023-07-25T22:53:19.845Z,4
2023-07-25T22:55:51.528Z,8
2023-07-25T22:58:23.051Z,5
2023-07-25T23:00:55.231Z,8
2023-07-25T23:03:27.226Z,8
2023-07-25T23:05:59.481Z,8
2023-07-25T23:08:30.516Z,4
2023-07-25T23:11:01.326Z,5
2023-07-25T23:13:35.534Z,8
2023-07-25T23:16:07.257Z,8
2023-07-25T23:18:41.204Z,4
2023-07-25T23:21:14.546Z,8
2023-07-25T23:23:45.505Z,8
2023-07-25T23:26:16.581Z,8
2023-07-25T23:28:47.348Z,4
2023-07-25T23:31:19.238Z,7
2023-07-25T23:33:49.794Z,4
2023-07-25T23:36:21.532Z,8
2023-07-25T23:38:52.581Z,4
2023-07-25T23:41:23.108Z,8
2023-07-25T23:43:54.472Z,5
2023-07-25T23:46:25.421Z,8
2023-07-25T23:48:57.823Z,4
2023-07-25T23:51:29.219Z,4
2023-07-25T23:54:02.035Z,5
2023-07-25T23:56:33.236Z,8
2023-07-25T23:59:04.108Z,8
